sensor_id;sensor_type;location;lat;lon;timestamp;P1;durP1;ratioP1;P2;durP2;ratioP2
813;SDS011;389;48.710;9.392;2023-04-24T00:01:49;1.67;;;1.57;;
813;SDS011;389;48.710;9.392;2023-04-24T00:04:15;2.03;;;1.30;;
813;SDS011;389;48.710;9.392;2023-04-24T00:06:42;2.30;;;1.30;;
813;SDS011;389;48.710;9.392;2023-04-24T00:09:08;4.30;;;1.53;;
813;SDS011;389;48.710;9.392;2023-04-24T00:11:35;1.73;;;1.60;;
813;SDS011;389;48.710;9.392;2023-04-24T00:14:01;1.47;;;1.37;;
813;SDS011;389;48.710;9.392;2023-04-24T00:16:27;2.40;;;1.37;;
813;SDS011;389;48.710;9.392;2023-04-24T00:18:53;2.80;;;1.50;;
813;SDS011;389;48.710;9.392;2023-04-24T00:21:19;2.07;;;1.57;;
813;SDS011;389;48.710;9.392;2023-04-24T00:23:45;2.03;;;1.60;;
813;SDS011;389;48.710;9.392;2023-04-24T00:28:41;1.93;;;1.43;;
813;SDS011;389;48.710;9.392;2023-04-24T00:31:06;1.60;;;1.50;;
813;SDS011;389;48.710;9.392;2023-04-24T00:33:32;2.60;;;1.60;;
813;SDS011;389;48.710;9.392;2023-04-24T00:35:58;2.37;;;1.40;;
813;SDS011;389;48.710;9.392;2023-04-24T00:38:23;1.30;;;1.17;;
813;SDS011;389;48.710;9.392;2023-04-24T00:40:49;1.50;;;1.40;;
813;SDS011;389;48.710;9.392;2023-04-24T00:43:15;1.70;;;1.23;;
813;SDS011;389;48.710;9.392;2023-04-24T00:45:41;1.30;;;1.20;;
813;SDS011;389;48.710;9.392;2023-04-24T00:48:07;2.67;;;1.33;;
813;SDS011;389;48.710;9.392;2023-04-24T00:50:33;1.20;;;1.10;;
813;SDS011;389;48.710;9.392;2023-04-24T00:53:00;1.37;;;1.17;;
813;SDS011;389;48.710;9.392;2023-04-24T00:55:26;1.50;;;1.40;;
813;SDS011;389;48.710;9.392;2023-04-24T00:57:52;1.50;;;1.40;;
813;SDS011;389;48.710;9.392;2023-04-24T01:00:17;1.33;;;1.23;;
813;SDS011;389;48.710;9.392;2023-04-24T01:02:44;1.47;;;1.33;;
813;SDS011;389;48.710;9.392;2023-04-24T01:05:13;2.93;;;1.30;;
813;SDS011;389;48.710;9.392;2023-04-24T01:07:43;1.40;;;1.30;;
813;SDS011;389;48.710;9.392;2023-04-24T01:10:12;4.23;;;1.30;;
813;SDS011;389;48.710;9.392;2023-04-24T01:12:38;2.13;;;1.30;;
813;SDS011;389;48.710;9.392;2023-04-24T01:15:05;1.10;;;1.00;;
813;SDS011;389;48.710;9.392;2023-04-24T01:17:31;3.27;;;1.43;;
813;SDS011;389;48.710;9.392;2023-04-24T01:19:57;1.17;;;1.07;;
813;SDS011;389;48.710;9.392;2023-04-24T01:22:25;1.23;;;0.90;;
813;SDS011;389;48.710;9.392;2023-04-24T01:24:51;2.07;;;1.13;;
813;SDS011;389;48.710;9.392;2023-04-24T01:27:17;1.30;;;1.10;;
813;SDS011;389;48.710;9.392;2023-04-24T01:29:46;0.90;;;0.87;;
813;SDS011;389;48.710;9.392;2023-04-24T01:32:14;1.50;;;1.20;;
813;SDS011;389;48.710;9.392;2023-04-24T01:34:40;1.67;;;1.20;;
813;SDS011;389;48.710;9.392;2023-04-24T01:37:06;0.93;;;0.90;;
813;SDS011;389;48.710;9.392;2023-04-24T01:39:32;0.83;;;0.83;;
813;SDS011;389;48.710;9.392;2023-04-24T01:41:58;1.67;;;0.90;;
813;SDS011;389;48.710;9.392;2023-04-24T01:44:25;1.20;;;1.10;;
813;SDS011;389;48.710;9.392;2023-04-24T01:46:51;0.70;;;0.70;;
813;SDS011;389;48.710;9.392;2023-04-24T01:49:19;2.73;;;1.03;;
813;SDS011;389;48.710;9.392;2023-04-24T01:51:44;1.20;;;1.00;;
813;SDS011;389;48.710;9.392;2023-04-24T01:54:13;1.03;;;0.97;;
813;SDS011;389;48.710;9.392;2023-04-24T01:56:40;1.07;;;1.00;;
813;SDS011;389;48.710;9.392;2023-04-24T01:59:12;0.90;;;0.87;;
813;SDS011;389;48.710;9.392;2023-04-24T02:01:38;2.47;;;1.37;;
813;SDS011;389;48.710;9.392;2023-04-24T02:04:04;1.00;;;0.90;;
813;SDS011;389;48.710;9.392;2023-04-24T02:06:31;2.50;;;1.23;;
813;SDS011;389;48.710;9.392;2023-04-24T02:08:59;1.30;;;1.20;;
813;SDS011;389;48.710;9.392;2023-04-24T02:11:25;1.63;;;1.10;;
813;SDS011;389;48.710;9.392;2023-04-24T02:13:51;1.30;;;1.03;;
813;SDS011;389;48.710;9.392;2023-04-24T02:16:17;1.20;;;1.10;;
813;SDS011;389;48.710;9.392;2023-04-24T02:18:43;1.13;;;1.10;;
813;SDS011;389;48.710;9.392;2023-04-24T02:21:09;1.97;;;1.20;;
813;SDS011;389;48.710;9.392;2023-04-24T02:23:35;0.87;;;0.80;;
813;SDS011;389;48.710;9.392;2023-04-24T02:26:00;1.30;;;1.20;;
813;SDS011;389;48.710;9.392;2023-04-24T02:28:26;1.27;;;1.07;;
813;SDS011;389;48.710;9.392;2023-04-24T02:30:52;1.00;;;1.00;;
813;SDS011;389;48.710;9.392;2023-04-24T02:33:23;1.77;;;1.20;;
813;SDS011;389;48.710;9.392;2023-04-24T02:35:49;1.43;;;0.90;;
813;SDS011;389;48.710;9.392;2023-04-24T02:38:15;1.40;;;1.30;;
813;SDS011;389;48.710;9.392;2023-04-24T02:40:40;2.23;;;1.43;;
813;SDS011;389;48.710;9.392;2023-04-24T02:43:15;2.03;;;1.40;;
813;SDS011;389;48.710;9.392;2023-04-24T02:45:44;1.83;;;1.20;;
813;SDS011;389;48.710;9.392;2023-04-24T02:48:18;1.60;;;1.50;;
813;SDS011;389;48.710;9.392;2023-04-24T02:50:49;1.93;;;1.20;;
813;SDS011;389;48.710;9.392;2023-04-24T02:53:15;1.40;;;1.30;;
813;SDS011;389;48.710;9.392;2023-04-24T02:55:44;1.30;;;1.23;;
813;SDS011;389;48.710;9.392;2023-04-24T02:58:11;0.83;;;0.83;;
813;SDS011;389;48.710;9.392;2023-04-24T03:00:38;1.77;;;1.30;;
813;SDS011;389;48.710;9.392;2023-04-24T03:03:06;3.73;;;1.60;;
813;SDS011;389;48.710;9.392;2023-04-24T03:05:32;1.20;;;1.10;;
813;SDS011;389;48.710;9.392;2023-04-24T03:08:00;3.00;;;1.70;;
813;SDS011;389;48.710;9.392;2023-04-24T03:10:26;1.63;;;1.10;;
813;SDS011;389;48.710;9.392;2023-04-24T03:12:52;1.20;;;1.10;;
813;SDS011;389;48.710;9.392;2023-04-24T03:15:19;1.30;;;1.20;;
813;SDS011;389;48.710;9.392;2023-04-24T03:17:48;1.40;;;1.30;;
813;SDS011;389;48.710;9.392;2023-04-24T03:20:14;1.57;;;1.20;;
813;SDS011;389;48.710;9.392;2023-04-24T03:22:42;1.50;;;1.30;;
813;SDS011;389;48.710;9.392;2023-04-24T03:25:08;1.07;;;1.00;;
813;SDS011;389;48.710;9.392;2023-04-24T03:27:43;2.80;;;1.10;;
813;SDS011;389;48.710;9.392;2023-04-24T03:30:09;1.47;;;1.10;;
813;SDS011;389;48.710;9.392;2023-04-24T03:32:35;1.20;;;1.10;;
813;SDS011;389;48.710;9.392;2023-04-24T03:35:01;2.13;;;1.30;;
813;SDS011;389;48.710;9.392;2023-04-24T03:37:32;2.40;;;1.47;;
813;SDS011;389;48.710;9.392;2023-04-24T03:39:57;1.60;;;1.50;;
813;SDS011;389;48.710;9.392;2023-04-24T03:42:26;1.67;;;1.57;;
813;SDS011;389;48.710;9.392;2023-04-24T03:44:52;2.00;;;1.47;;
813;SDS011;389;48.710;9.392;2023-04-24T03:47:18;1.40;;;1.30;;
813;SDS011;389;48.710;9.392;2023-04-24T03:49:43;2.40;;;1.93;;
813;SDS011;389;48.710;9.392;2023-04-24T03:52:09;2.47;;;2.07;;
813;SDS011;389;48.710;9.392;2023-04-24T03:54:35;2.83;;;1.57;;
813;SDS011;389;48.710;9.392;2023-04-24T03:57:04;3.33;;;1.20;;
813;SDS011;389;48.710;9.392;2023-04-24T03:59:42;2.00;;;1.37;;
813;SDS011;389;48.710;9.392;2023-04-24T04:02:13;1.50;;;1.40;;
813;SDS011;389;48.710;9.392;2023-04-24T04:04:39;1.67;;;1.50;;
813;SDS011;389;48.710;9.392;2023-04-24T04:07:08;2.00;;;1.60;;
813;SDS011;389;48.710;9.392;2023-04-24T04:09:39;1.40;;;1.30;;
813;SDS011;389;48.710;9.392;2023-04-24T04:12:05;1.57;;;1.17;;
813;SDS011;389;48.710;9.392;2023-04-24T04:14:31;1.50;;;1.13;;
813;SDS011;389;48.710;9.392;2023-04-24T04:16:56;1.60;;;1.30;;
813;SDS011;389;48.710;9.392;2023-04-24T04:19:22;1.20;;;1.10;;
813;SDS011;389;48.710;9.392;2023-04-24T04:21:47;2.00;;;1.17;;
813;SDS011;389;48.710;9.392;2023-04-24T04:24:17;1.43;;;1.37;;
813;SDS011;389;48.710;9.392;2023-04-24T04:26:43;3.47;;;1.87;;
813;SDS011;389;48.710;9.392;2023-04-24T04:29:12;2.30;;;1.50;;
813;SDS011;389;48.710;9.392;2023-04-24T04:31:44;1.17;;;1.07;;
813;SDS011;389;48.710;9.392;2023-04-24T04:34:09;1.60;;;1.40;;
813;SDS011;389;48.710;9.392;2023-04-24T04:36:36;1.90;;;1.73;;
813;SDS011;389;48.710;9.392;2023-04-24T04:39:05;1.10;;;1.10;;
813;SDS011;389;48.710;9.392;2023-04-24T04:41:30;3.37;;;1.63;;
813;SDS011;389;48.710;9.392;2023-04-24T04:43:57;1.47;;;1.37;;
813;SDS011;389;48.710;9.392;2023-04-24T04:46:25;1.47;;;1.30;;
813;SDS011;389;48.710;9.392;2023-04-24T04:48:51;2.50;;;1.50;;
813;SDS011;389;48.710;9.392;2023-04-24T04:51:17;3.37;;;1.60;;
813;SDS011;389;48.710;9.392;2023-04-24T04:53:43;4.90;;;1.67;;
813;SDS011;389;48.710;9.392;2023-04-24T04:56:08;2.67;;;1.60;;
813;SDS011;389;48.710;9.392;2023-04-24T04:58:34;2.83;;;1.10;;
813;SDS011;389;48.710;9.392;2023-04-24T05:01:00;3.50;;;1.27;;
813;SDS011;389;48.710;9.392;2023-04-24T05:03:28;1.13;;;1.13;;
813;SDS011;389;48.710;9.392;2023-04-24T05:05:54;1.60;;;1.50;;
813;SDS011;389;48.710;9.392;2023-04-24T05:08:19;1.30;;;1.20;;
813;SDS011;389;48.710;9.392;2023-04-24T05:10:45;2.10;;;1.60;;
813;SDS011;389;48.710;9.392;2023-04-24T05:13:10;1.70;;;1.60;;
813;SDS011;389;48.710;9.392;2023-04-24T05:15:36;1.70;;;1.60;;
813;SDS011;389;48.710;9.392;2023-04-24T05:18:01;1.30;;;1.20;;
813;SDS011;389;48.710;9.392;2023-04-24T05:20:28;1.60;;;1.50;;
813;SDS011;389;48.710;9.392;2023-04-24T05:22:53;1.87;;;1.50;;
813;SDS011;389;48.710;9.392;2023-04-24T05:25:19;1.80;;;1.60;;
813;SDS011;389;48.710;9.392;2023-04-24T05:27:44;1.53;;;1.43;;
813;SDS011;389;48.710;9.392;2023-04-24T05:30:11;2.00;;;1.30;;
813;SDS011;389;48.710;9.392;2023-04-24T05:32:37;1.80;;;1.70;;
813;SDS011;389;48.710;9.392;2023-04-24T05:35:02;1.70;;;1.60;;
813;SDS011;389;48.710;9.392;2023-04-24T05:37:28;2.37;;;2.13;;
813;SDS011;389;48.710;9.392;2023-04-24T05:39:54;2.63;;;2.10;;
813;SDS011;389;48.710;9.392;2023-04-24T05:42:20;1.60;;;1.50;;
813;SDS011;389;48.710;9.392;2023-04-24T05:44:45;1.40;;;1.30;;
813;SDS011;389;48.710;9.392;2023-04-24T05:47:11;2.27;;;2.00;;
813;SDS011;389;48.710;9.392;2023-04-24T05:49:36;1.60;;;1.50;;
813;SDS011;389;48.710;9.392;2023-04-24T05:52:02;4.30;;;1.43;;
813;SDS011;389;48.710;9.392;2023-04-24T05:54:29;3.17;;;1.77;;
813;SDS011;389;48.710;9.392;2023-04-24T05:56:54;1.97;;;1.70;;
813;SDS011;389;48.710;9.392;2023-04-24T05:59:20;5.90;;;1.80;;
813;SDS011;389;48.710;9.392;2023-04-24T06:01:46;3.07;;;1.60;;
813;SDS011;389;48.710;9.392;2023-04-24T06:04:12;1.90;;;1.80;;
813;SDS011;389;48.710;9.392;2023-04-24T06:06:38;1.93;;;1.73;;
813;SDS011;389;48.710;9.392;2023-04-24T06:09:04;1.87;;;1.77;;
813;SDS011;389;48.710;9.392;2023-04-24T06:11:30;2.13;;;1.93;;
813;SDS011;389;48.710;9.392;2023-04-24T06:13:56;2.20;;;1.73;;
813;SDS011;389;48.710;9.392;2023-04-24T06:16:21;3.17;;;1.80;;
813;SDS011;389;48.710;9.392;2023-04-24T06:18:47;1.70;;;1.60;;
813;SDS011;389;48.710;9.392;2023-04-24T06:21:12;1.90;;;1.80;;
813;SDS011;389;48.710;9.392;2023-04-24T06:23:38;2.63;;;1.83;;
813;SDS011;389;48.710;9.392;2023-04-24T06:26:03;2.57;;;2.07;;
813;SDS011;389;48.710;9.392;2023-04-24T06:28:29;2.30;;;2.10;;
813;SDS011;389;48.710;9.392;2023-04-24T06:30:55;2.10;;;2.00;;
813;SDS011;389;48.710;9.392;2023-04-24T06:33:20;2.60;;;2.10;;
813;SDS011;389;48.710;9.392;2023-04-24T06:35:46;4.00;;;2.50;;
813;SDS011;389;48.710;9.392;2023-04-24T06:38:11;2.73;;;2.40;;
813;SDS011;389;48.710;9.392;2023-04-24T06:40:37;3.07;;;2.20;;
813;SDS011;389;48.710;9.392;2023-04-24T06:43:03;4.20;;;2.43;;
813;SDS011;389;48.710;9.392;2023-04-24T06:45:28;2.00;;;1.90;;
813;SDS011;389;48.710;9.392;2023-04-24T06:47:54;2.33;;;2.13;;
813;SDS011;389;48.710;9.392;2023-04-24T06:50:21;2.93;;;2.37;;
813;SDS011;389;48.710;9.392;2023-04-24T06:52:46;3.30;;;2.57;;
813;SDS011;389;48.710;9.392;2023-04-24T06:55:12;2.40;;;2.20;;
813;SDS011;389;48.710;9.392;2023-04-24T06:57:38;2.30;;;2.10;;
813;SDS011;389;48.710;9.392;2023-04-24T07:00:04;4.30;;;2.50;;
813;SDS011;389;48.710;9.392;2023-04-24T07:02:31;2.17;;;1.97;;
813;SDS011;389;48.710;9.392;2023-04-24T07:04:57;2.43;;;2.07;;
813;SDS011;389;48.710;9.392;2023-04-24T07:07:22;1.80;;;1.63;;
813;SDS011;389;48.710;9.392;2023-04-24T07:09:48;1.97;;;1.77;;
813;SDS011;389;48.710;9.392;2023-04-24T07:12:15;1.80;;;1.57;;
813;SDS011;389;48.710;9.392;2023-04-24T07:14:42;1.50;;;1.40;;
813;SDS011;389;48.710;9.392;2023-04-24T07:17:07;5.27;;;1.60;;
813;SDS011;389;48.710;9.392;2023-04-24T07:19:33;1.80;;;1.70;;
813;SDS011;389;48.710;9.392;2023-04-24T07:22:00;1.90;;;1.80;;
813;SDS011;389;48.710;9.392;2023-04-24T07:24:26;1.70;;;1.60;;
813;SDS011;389;48.710;9.392;2023-04-24T07:26:51;1.63;;;1.50;;
813;SDS011;389;48.710;9.392;2023-04-24T07:29:17;1.80;;;1.70;;
813;SDS011;389;48.710;9.392;2023-04-24T07:31:44;1.60;;;1.50;;
813;SDS011;389;48.710;9.392;2023-04-24T07:34:10;1.97;;;1.87;;
813;SDS011;389;48.710;9.392;2023-04-24T07:36:35;1.63;;;1.53;;
813;SDS011;389;48.710;9.392;2023-04-24T07:39:03;2.27;;;2.00;;
813;SDS011;389;48.710;9.392;2023-04-24T07:41:29;1.83;;;1.70;;
813;SDS011;389;48.710;9.392;2023-04-24T07:43:54;2.03;;;1.60;;
813;SDS011;389;48.710;9.392;2023-04-24T07:46:20;2.30;;;1.67;;
813;SDS011;389;48.710;9.392;2023-04-24T07:48:46;1.87;;;1.70;;
813;SDS011;389;48.710;9.392;2023-04-24T07:51:14;1.50;;;1.40;;
813;SDS011;389;48.710;9.392;2023-04-24T07:53:40;1.50;;;1.40;;
813;SDS011;389;48.710;9.392;2023-04-24T07:56:06;1.13;;;1.10;;
813;SDS011;389;48.710;9.392;2023-04-24T07:58:31;1.50;;;1.40;;
813;SDS011;389;48.710;9.392;2023-04-24T08:00:57;2.17;;;1.30;;
813;SDS011;389;48.710;9.392;2023-04-24T08:03:23;2.37;;;1.70;;
813;SDS011;389;48.710;9.392;2023-04-24T08:05:49;2.10;;;1.77;;
813;SDS011;389;48.710;9.392;2023-04-24T08:08:16;6.03;;;1.57;;
813;SDS011;389;48.710;9.392;2023-04-24T08:10:42;2.20;;;1.47;;
813;SDS011;389;48.710;9.392;2023-04-24T08:13:07;1.50;;;1.40;;
813;SDS011;389;48.710;9.392;2023-04-24T08:15:33;1.57;;;1.37;;
813;SDS011;389;48.710;9.392;2023-04-24T08:17:59;1.70;;;1.60;;
813;SDS011;389;48.710;9.392;2023-04-24T08:20:25;1.50;;;1.40;;
813;SDS011;389;48.710;9.392;2023-04-24T08:22:51;2.30;;;1.30;;
813;SDS011;389;48.710;9.392;2023-04-24T08:25:16;1.70;;;1.40;;
813;SDS011;389;48.710;9.392;2023-04-24T08:27:43;1.43;;;1.33;;
813;SDS011;389;48.710;9.392;2023-04-24T08:30:09;2.77;;;1.50;;
813;SDS011;389;48.710;9.392;2023-04-24T08:32:35;1.30;;;1.20;;
813;SDS011;389;48.710;9.392;2023-04-24T08:35:01;2.20;;;1.50;;
813;SDS011;389;48.710;9.392;2023-04-24T08:37:27;1.47;;;1.37;;
813;SDS011;389;48.710;9.392;2023-04-24T08:39:52;1.80;;;1.40;;
813;SDS011;389;48.710;9.392;2023-04-24T08:42:19;1.50;;;1.40;;
813;SDS011;389;48.710;9.392;2023-04-24T08:44:45;1.77;;;1.20;;
813;SDS011;389;48.710;9.392;2023-04-24T08:47:11;1.20;;;1.20;;
813;SDS011;389;48.710;9.392;2023-04-24T08:49:37;1.63;;;1.53;;
813;SDS011;389;48.710;9.392;2023-04-24T08:52:04;2.60;;;1.77;;
813;SDS011;389;48.710;9.392;2023-04-24T08:54:30;1.43;;;1.33;;
813;SDS011;389;48.710;9.392;2023-04-24T08:57:00;1.60;;;1.50;;
813;SDS011;389;48.710;9.392;2023-04-24T08:59:28;2.57;;;1.50;;
813;SDS011;389;48.710;9.392;2023-04-24T09:01:55;1.70;;;1.60;;
813;SDS011;389;48.710;9.392;2023-04-24T09:04:21;3.17;;;1.63;;
813;SDS011;389;48.710;9.392;2023-04-24T09:06:49;1.93;;;1.73;;
813;SDS011;389;48.710;9.392;2023-04-24T09:12:13;4.67;;;1.53;;
813;SDS011;389;48.710;9.392;2023-04-24T09:14:39;1.97;;;1.57;;
813;SDS011;389;48.710;9.392;2023-04-24T09:17:07;2.70;;;1.80;;
813;SDS011;389;48.710;9.392;2023-04-24T09:19:33;3.23;;;1.60;;
813;SDS011;389;48.710;9.392;2023-04-24T09:21:58;1.40;;;1.30;;
813;SDS011;389;48.710;9.392;2023-04-24T09:24:24;1.70;;;1.53;;
813;SDS011;389;48.710;9.392;2023-04-24T09:26:56;1.43;;;1.33;;
813;SDS011;389;48.710;9.392;2023-04-24T09:29:23;2.10;;;1.90;;
813;SDS011;389;48.710;9.392;2023-04-24T09:31:49;4.53;;;1.60;;
813;SDS011;389;48.710;9.392;2023-04-24T09:34:18;1.70;;;1.53;;
813;SDS011;389;48.710;9.392;2023-04-24T09:36:50;1.97;;;1.77;;
813;SDS011;389;48.710;9.392;2023-04-24T09:39:16;1.73;;;1.63;;
813;SDS011;389;48.710;9.392;2023-04-24T09:44:15;1.90;;;1.80;;
813;SDS011;389;48.710;9.392;2023-04-24T09:46:43;1.90;;;1.80;;
813;SDS011;389;48.710;9.392;2023-04-24T09:49:11;1.60;;;1.50;;
813;SDS011;389;48.710;9.392;2023-04-24T09:51:38;1.33;;;1.23;;
813;SDS011;389;48.710;9.392;2023-04-24T09:54:04;1.63;;;1.20;;
813;SDS011;389;48.710;9.392;2023-04-24T09:56:46;1.50;;;1.40;;
813;SDS011;389;48.710;9.392;2023-04-24T09:59:14;2.43;;;1.80;;
813;SDS011;389;48.710;9.392;2023-04-24T10:01:40;1.10;;;1.10;;
813;SDS011;389;48.710;9.392;2023-04-24T10:04:28;1.67;;;1.20;;
813;SDS011;389;48.710;9.392;2023-04-24T10:06:55;1.30;;;1.20;;
813;SDS011;389;48.710;9.392;2023-04-24T10:09:22;1.23;;;1.07;;
813;SDS011;389;48.710;9.392;2023-04-24T10:11:50;1.53;;;0.90;;
813;SDS011;389;48.710;9.392;2023-04-24T10:14:18;1.10;;;1.00;;
813;SDS011;389;48.710;9.392;2023-04-24T10:16:46;0.90;;;0.90;;
813;SDS011;389;48.710;9.392;2023-04-24T10:19:13;1.40;;;1.13;;
813;SDS011;389;48.710;9.392;2023-04-24T10:21:40;1.30;;;1.20;;
813;SDS011;389;48.710;9.392;2023-04-24T10:24:10;1.73;;;1.00;;
813;SDS011;389;48.710;9.392;2023-04-24T10:26:38;1.33;;;1.23;;
813;SDS011;389;48.710;9.392;2023-04-24T10:29:05;1.17;;;1.00;;
813;SDS011;389;48.710;9.392;2023-04-24T10:31:35;1.10;;;1.10;;
813;SDS011;389;48.710;9.392;2023-04-24T10:34:03;1.30;;;1.20;;
813;SDS011;389;48.710;9.392;2023-04-24T10:36:30;1.00;;;1.00;;
813;SDS011;389;48.710;9.392;2023-04-24T10:38:59;1.87;;;1.40;;
813;SDS011;389;48.710;9.392;2023-04-24T10:41:27;5.07;;;1.20;;
813;SDS011;389;48.710;9.392;2023-04-24T10:44:05;1.20;;;1.10;;
813;SDS011;389;48.710;9.392;2023-04-24T10:46:35;1.43;;;1.33;;
813;SDS011;389;48.710;9.392;2023-04-24T10:49:05;1.23;;;1.13;;
813;SDS011;389;48.710;9.392;2023-04-24T10:54:28;1.23;;;1.13;;
813;SDS011;389;48.710;9.392;2023-04-24T10:59:48;0.80;;;0.80;;
813;SDS011;389;48.710;9.392;2023-04-24T11:02:38;0.90;;;0.90;;
813;SDS011;389;48.710;9.392;2023-04-24T11:05:05;0.90;;;0.90;;
813;SDS011;389;48.710;9.392;2023-04-24T11:10:37;1.30;;;1.20;;
813;SDS011;389;48.710;9.392;2023-04-24T11:13:10;1.63;;;0.97;;
813;SDS011;389;48.710;9.392;2023-04-24T11:15:40;2.17;;;1.70;;
813;SDS011;389;48.710;9.392;2023-04-24T11:18:07;0.90;;;0.70;;
813;SDS011;389;48.710;9.392;2023-04-24T11:20:38;1.93;;;1.10;;
813;SDS011;389;48.710;9.392;2023-04-24T11:23:07;1.13;;;1.00;;
813;SDS011;389;48.710;9.392;2023-04-24T11:25:33;1.00;;;1.00;;
813;SDS011;389;48.710;9.392;2023-04-24T11:28:04;1.10;;;1.10;;
813;SDS011;389;48.710;9.392;2023-04-24T11:30:30;1.40;;;1.30;;
813;SDS011;389;48.710;9.392;2023-04-24T11:33:02;1.20;;;1.10;;
813;SDS011;389;48.710;9.392;2023-04-24T11:35:29;1.00;;;1.00;;
813;SDS011;389;48.710;9.392;2023-04-24T11:37:55;1.53;;;1.43;;
813;SDS011;389;48.710;9.392;2023-04-24T11:40:21;1.00;;;1.00;;
813;SDS011;389;48.710;9.392;2023-04-24T11:42:48;1.57;;;1.47;;
813;SDS011;389;48.710;9.392;2023-04-24T11:45:15;2.40;;;1.20;;
813;SDS011;389;48.710;9.392;2023-04-24T11:47:50;1.40;;;1.20;;
813;SDS011;389;48.710;9.392;2023-04-24T11:50:16;1.50;;;1.40;;
813;SDS011;389;48.710;9.392;2023-04-24T11:52:43;1.33;;;1.23;;
813;SDS011;389;48.710;9.392;2023-04-24T11:57:39;1.80;;;1.23;;
813;SDS011;389;48.710;9.392;2023-04-24T12:00:14;1.50;;;1.40;;
813;SDS011;389;48.710;9.392;2023-04-24T12:02:41;1.20;;;1.10;;
813;SDS011;389;48.710;9.392;2023-04-24T12:05:07;0.83;;;0.83;;
813;SDS011;389;48.710;9.392;2023-04-24T12:07:39;1.33;;;1.23;;
813;SDS011;389;48.710;9.392;2023-04-24T12:10:08;2.10;;;1.90;;
813;SDS011;389;48.710;9.392;2023-04-24T12:12:34;2.50;;;2.10;;
813;SDS011;389;48.710;9.392;2023-04-24T12:15:00;2.03;;;1.70;;
813;SDS011;389;48.710;9.392;2023-04-24T12:17:30;1.30;;;1.20;;
813;SDS011;389;48.710;9.392;2023-04-24T12:19:58;1.90;;;1.37;;
813;SDS011;389;48.710;9.392;2023-04-24T12:22:50;2.00;;;1.47;;
813;SDS011;389;48.710;9.392;2023-04-24T12:25:21;1.50;;;1.40;;
813;SDS011;389;48.710;9.392;2023-04-24T12:27:55;1.87;;;1.60;;
813;SDS011;389;48.710;9.392;2023-04-24T12:30:48;1.53;;;1.43;;
813;SDS011;389;48.710;9.392;2023-04-24T12:33:20;1.40;;;1.30;;
813;SDS011;389;48.710;9.392;2023-04-24T12:35:47;2.30;;;1.90;;
813;SDS011;389;48.710;9.392;2023-04-24T12:38:16;1.60;;;1.50;;
813;SDS011;389;48.710;9.392;2023-04-24T12:40:46;1.33;;;1.23;;
813;SDS011;389;48.710;9.392;2023-04-24T12:43:12;1.60;;;1.50;;
813;SDS011;389;48.710;9.392;2023-04-24T12:45:38;1.40;;;1.30;;
813;SDS011;389;48.710;9.392;2023-04-24T12:48:04;1.40;;;1.30;;
813;SDS011;389;48.710;9.392;2023-04-24T12:50:30;1.60;;;1.50;;
813;SDS011;389;48.710;9.392;2023-04-24T12:52:55;1.20;;;1.20;;
813;SDS011;389;48.710;9.392;2023-04-24T12:55:21;1.80;;;1.70;;
813;SDS011;389;48.710;9.392;2023-04-24T12:57:47;1.87;;;1.40;;
813;SDS011;389;48.710;9.392;2023-04-24T13:00:12;2.00;;;1.90;;
813;SDS011;389;48.710;9.392;2023-04-24T13:02:38;2.10;;;1.70;;
813;SDS011;389;48.710;9.392;2023-04-24T13:05:05;1.37;;;1.27;;
813;SDS011;389;48.710;9.392;2023-04-24T13:07:31;2.70;;;1.57;;
813;SDS011;389;48.710;9.392;2023-04-24T13:09:57;1.37;;;1.27;;
813;SDS011;389;48.710;9.392;2023-04-24T13:12:23;1.97;;;1.60;;
813;SDS011;389;48.710;9.392;2023-04-24T13:14:49;1.53;;;1.43;;
813;SDS011;389;48.710;9.392;2023-04-24T13:17:14;1.23;;;1.13;;
813;SDS011;389;48.710;9.392;2023-04-24T13:19:41;1.43;;;1.17;;
813;SDS011;389;48.710;9.392;2023-04-24T13:22:08;3.17;;;1.30;;
813;SDS011;389;48.710;9.392;2023-04-24T13:24:34;2.13;;;1.50;;
813;SDS011;389;48.710;9.392;2023-04-24T13:27:00;1.20;;;1.17;;
813;SDS011;389;48.710;9.392;2023-04-24T13:29:26;1.50;;;1.30;;
813;SDS011;389;48.710;9.392;2023-04-24T13:31:52;1.00;;;1.00;;
813;SDS011;389;48.710;9.392;2023-04-24T13:34:20;1.37;;;1.27;;
813;SDS011;389;48.710;9.392;2023-04-24T13:36:46;1.50;;;1.40;;
813;SDS011;389;48.710;9.392;2023-04-24T13:39:11;5.53;;;2.83;;
813;SDS011;389;48.710;9.392;2023-04-24T13:41:37;6.00;;;4.33;;
813;SDS011;389;48.710;9.392;2023-04-24T13:44:03;2.77;;;2.00;;
813;SDS011;389;48.710;9.392;2023-04-24T13:46:29;2.13;;;1.73;;
813;SDS011;389;48.710;9.392;2023-04-24T13:48:55;2.73;;;2.47;;
813;SDS011;389;48.710;9.392;2023-04-24T13:51:22;2.30;;;2.10;;
813;SDS011;389;48.710;9.392;2023-04-24T13:53:48;1.90;;;1.80;;
813;SDS011;389;48.710;9.392;2023-04-24T13:56:14;2.33;;;1.70;;
813;SDS011;389;48.710;9.392;2023-04-24T13:58:40;1.57;;;1.47;;
813;SDS011;389;48.710;9.392;2023-04-24T14:01:05;1.73;;;1.53;;
813;SDS011;389;48.710;9.392;2023-04-24T14:03:32;2.20;;;1.80;;
813;SDS011;389;48.710;9.392;2023-04-24T14:05:58;1.73;;;1.63;;
813;SDS011;389;48.710;9.392;2023-04-24T14:08:24;2.17;;;1.90;;
813;SDS011;389;48.710;9.392;2023-04-24T14:10:50;2.00;;;1.83;;
813;SDS011;389;48.710;9.392;2023-04-24T14:13:16;1.90;;;1.80;;
813;SDS011;389;48.710;9.392;2023-04-24T14:15:42;1.50;;;1.40;;
813;SDS011;389;48.710;9.392;2023-04-24T14:18:07;6.17;;;4.00;;
813;SDS011;389;48.710;9.392;2023-04-24T14:20:33;4.23;;;3.50;;
813;SDS011;389;48.710;9.392;2023-04-24T14:22:59;2.90;;;2.53;;
813;SDS011;389;48.710;9.392;2023-04-24T14:25:24;7.13;;;5.00;;
813;SDS011;389;48.710;9.392;2023-04-24T14:27:50;6.23;;;3.67;;
813;SDS011;389;48.710;9.392;2023-04-24T14:30:16;3.10;;;2.80;;
813;SDS011;389;48.710;9.392;2023-04-24T14:32:42;3.20;;;2.80;;
813;SDS011;389;48.710;9.392;2023-04-24T14:35:08;4.73;;;3.57;;
813;SDS011;389;48.710;9.392;2023-04-24T14:37:33;5.03;;;3.23;;
813;SDS011;389;48.710;9.392;2023-04-24T14:40:00;23.07;;;12.20;;
813;SDS011;389;48.710;9.392;2023-04-24T14:42:26;6.37;;;5.70;;
813;SDS011;389;48.710;9.392;2023-04-24T14:44:53;10.13;;;5.90;;
813;SDS011;389;48.710;9.392;2023-04-24T14:47:19;10.70;;;9.13;;
813;SDS011;389;48.710;9.392;2023-04-24T14:49:46;6.40;;;4.60;;
813;SDS011;389;48.710;9.392;2023-04-24T14:52:15;5.00;;;3.60;;
813;SDS011;389;48.710;9.392;2023-04-24T14:54:41;4.17;;;3.83;;
813;SDS011;389;48.710;9.392;2023-04-24T14:57:07;4.53;;;4.13;;
813;SDS011;389;48.710;9.392;2023-04-24T14:59:32;4.87;;;4.47;;
813;SDS011;389;48.710;9.392;2023-04-24T15:01:58;3.40;;;2.90;;
813;SDS011;389;48.710;9.392;2023-04-24T15:04:24;4.83;;;4.30;;
813;SDS011;389;48.710;9.392;2023-04-24T15:06:53;2.10;;;2.00;;
813;SDS011;389;48.710;9.392;2023-04-24T15:09:19;2.40;;;2.20;;
813;SDS011;389;48.710;9.392;2023-04-24T15:11:46;2.67;;;2.47;;
813;SDS011;389;48.710;9.392;2023-04-24T15:14:13;1.77;;;1.67;;
813;SDS011;389;48.710;9.392;2023-04-24T15:16:39;2.03;;;1.93;;
813;SDS011;389;48.710;9.392;2023-04-24T15:19:05;2.20;;;2.00;;
813;SDS011;389;48.710;9.392;2023-04-24T15:21:30;3.17;;;2.57;;
813;SDS011;389;48.710;9.392;2023-04-24T15:23:57;2.93;;;2.50;;
813;SDS011;389;48.710;9.392;2023-04-24T15:26:23;2.67;;;2.47;;
813;SDS011;389;48.710;9.392;2023-04-24T15:28:48;2.07;;;1.97;;
813;SDS011;389;48.710;9.392;2023-04-24T15:31:14;1.87;;;1.67;;
813;SDS011;389;48.710;9.392;2023-04-24T15:33:40;2.60;;;2.40;;
813;SDS011;389;48.710;9.392;2023-04-24T15:36:05;3.00;;;2.30;;
813;SDS011;389;48.710;9.392;2023-04-24T15:38:31;2.60;;;2.10;;
813;SDS011;389;48.710;9.392;2023-04-24T15:40:57;3.30;;;2.20;;
813;SDS011;389;48.710;9.392;2023-04-24T15:43:23;2.30;;;2.20;;
813;SDS011;389;48.710;9.392;2023-04-24T15:45:51;2.20;;;2.00;;
813;SDS011;389;48.710;9.392;2023-04-24T15:48:18;2.10;;;1.90;;
813;SDS011;389;48.710;9.392;2023-04-24T15:50:43;2.63;;;2.00;;
813;SDS011;389;48.710;9.392;2023-04-24T15:53:09;2.00;;;1.90;;
813;SDS011;389;48.710;9.392;2023-04-24T15:55:35;2.00;;;1.80;;
813;SDS011;389;48.710;9.392;2023-04-24T15:58:01;2.13;;;1.93;;
813;SDS011;389;48.710;9.392;2023-04-24T16:00:27;2.50;;;1.90;;
813;SDS011;389;48.710;9.392;2023-04-24T16:02:58;2.37;;;1.80;;